Time;durP1;ratioP1;P1;durP2;ratioP2;P2;SDS_P1;SDS_P2;PMS_P1;PMS_P2;Temp;Humidity;BMP_temperature;BMP_pressure;BME280_temperature;BME280_humidity;BME280_pressure;Samples;Min_cycle;Max_cycle;Signal;HPM_P1;HPM_P2
2023/01/01 00:00:41;;;;;;;22.05;12.55;;;14.30;99.90;;;;;;5049914;28;20578;-75
2023/01/01 00:03:07;;;;;;;24.15;13.98;;;14.30;99.90;;;;;;5041002;28;20526;-75
2023/01/01 00:05:32;;;;;;;27.33;13.57;;;14.30;99.90;;;;;;5032718;28;20133;-75
2023/01/01 00:07:58;;;;;;;20.48;12.40;;;14.30;99.90;;;;;;5063129;28;20067;-75
2023/01/01 00:10:29;;;;;;;21.73;11.45;;;14.30;99.90;;;;;;5054913;28;20048;-76
2023/01/01 00:12:56;;;;;;;19.48;11.30;;;14.20;99.90;;;;;;5058647;28;20123;-75
2023/01/01 00:15:22;;;;;;;24.08;11.88;;;14.20;99.90;;;;;;5068393;28;20071;-75
2023/01/01 00:17:48;;;;;;;21.42;10.90;;;14.20;99.90;;;;;;5068019;28;20116;-76
2023/01/01 00:20:13;;;;;;;21.15;10.57;;;14.20;99.90;;;;;;5055003;28;20032;-75
2023/01/01 00:22:39;;;;;;;23.80;10.48;;;14.20;99.90;;;;;;5037017;28;20082;-75
2023/01/01 00:25:05;;;;;;;22.38;9.32;;;14.20;99.90;;;;;;5051876;28;20378;-75
2023/01/01 00:27:31;;;;;;;17.85;9.20;;;14.10;99.90;;;;;;5035510;28;20090;-75
2023/01/01 00:29:56;;;;;;;19.48;10.43;;;14.10;99.90;;;;;;5042457;28;20044;-75
2023/01/01 00:32:22;;;;;;;22.63;11.60;;;14.00;99.90;;;;;;5035486;28;20431;-75
2023/01/01 00:34:48;;;;;;;18.50;11.05;;;14.10;99.90;;;;;;5049714;28;20036;-75
2023/01/01 00:37:14;;;;;;;24.92;11.93;;;14.00;99.90;;;;;;5037959;28;20039;-75
2023/01/01 00:39:40;;;;;;;24.65;12.05;;;14.00;99.90;;;;;;5038206;28;20157;-75
2023/01/01 00:42:05;;;;;;;23.75;14.35;;;14.00;99.90;;;;;;5051905;28;20053;-75
2023/01/01 00:44:31;;;;;;;24.20;15.25;;;14.00;99.90;;;;;;5051449;28;20044;-75
2023/01/01 00:46:57;;;;;;;28.08;15.90;;;14.00;99.90;;;;;;5034449;28;20151;-75
2023/01/01 00:49:22;;;;;;;30.35;17.10;;;14.00;99.90;;;;;;5038492;28;20556;-75
2023/01/01 00:51:48;;;;;;;34.60;18.73;;;14.00;99.90;;;;;;5058159;28;20044;-75
2023/01/01 00:54:13;;;;;;;28.88;16.88;;;13.90;99.90;;;;;;5062567;28;20412;-75
2023/01/01 00:56:40;;;;;;;32.10;18.77;;;13.90;99.90;;;;;;5059347;28;20063;-76
2023/01/01 00:59:05;;;;;;;30.00;19.58;;;13.90;99.90;;;;;;5060697;28;20036;-75
2023/01/01 01:01:33;;;;;;;33.50;19.42;;;13.90;99.90;;;;;;5046511;28;20045;-75
2023/01/01 01:03:59;;;;;;;31.02;19.98;;;13.90;99.90;;;;;;5063301;28;20052;-75
2023/01/01 01:06:25;;;;;;;35.42;23.90;;;13.90;99.90;;;;;;5052563;28;20881;-76
2023/01/01 01:08:50;;;;;;;35.88;26.35;;;13.90;99.90;;;;;;5059457;28;20381;-75
2023/01/01 01:11:22;;;;;;;42.15;27.05;;;13.90;99.90;;;;;;5059686;28;20548;-75
2023/01/01 01:13:50;;;;;;;37.72;26.05;;;13.90;99.90;;;;;;5078731;28;20396;-76
2023/01/01 01:16:19;;;;;;;41.50;27.90;;;13.80;99.90;;;;;;5060606;28;20123;-75
2023/01/01 01:18:46;;;;;;;49.60;30.02;;;13.70;99.90;;;;;;5059569;28;21052;-75
2023/01/01 01:21:16;;;;;;;44.35;32.85;;;13.70;99.90;;;;;;5062305;28;20079;-75
2023/01/01 01:23:42;;;;;;;44.97;28.90;;;13.60;99.90;;;;;;5060881;28;20090;-75
2023/01/01 01:26:13;;;;;;;43.67;28.90;;;13.50;99.90;;;;;;5045157;28;20036;-75
2023/01/01 01:28:39;;;;;;;43.67;32.42;;;13.50;99.90;;;;;;5047556;28;20127;-75
2023/01/01 01:31:05;;;;;;;44.95;29.30;;;13.40;99.90;;;;;;5056736;28;20101;-76
2023/01/01 01:33:31;;;;;;;47.95;32.03;;;13.40;99.90;;;;;;5057779;28;20029;-75
2023/01/01 01:35:57;;;;;;;45.28;30.73;;;13.30;99.90;;;;;;5045459;28;20037;-75
2023/01/01 01:38:22;;;;;;;45.03;31.85;;;13.30;99.90;;;;;;5061183;28;20040;-75
2023/01/01 01:40:48;;;;;;;50.92;35.63;;;13.20;99.90;;;;;;5061772;28;20060;-75
2023/01/01 01:43:31;;;;;;;49.63;33.40;;;13.20;99.90;;;;;;5063010;28;20519;-75
2023/01/01 01:46:04;;;;;;;49.33;31.67;;;13.10;99.90;;;;;;5045179;28;20504;-75
2023/01/01 01:48:38;;;;;;;50.50;34.95;;;13.10;99.90;;;;;;5074973;28;20044;-75
2023/01/01 01:51:04;;;;;;;51.33;37.40;;;13.00;99.90;;;;;;5045665;28;20037;-75
2023/01/01 01:53:32;;;;;;;49.75;37.28;;;13.00;99.90;;;;;;5060075;28;20047;-75
2023/01/01 01:56:09;;;;;;;54.10;35.30;;;12.90;99.90;;;;;;5047043;28;20033;-76
2023/01/01 01:58:35;;;;;;;52.85;37.67;;;12.90;99.90;;;;;;5056794;28;20040;-75
2023/01/01 02:01:01;;;;;;;48.63;33.05;;;12.90;99.90;;;;;;5046014;28;20032;-76
2023/01/01 02:03:42;;;;;;;57.97;39.97;;;12.80;99.90;;;;;;5046322;28;20039;-75
2023/01/01 02:06:09;;;;;;;59.60;38.38;;;12.80;99.90;;;;;;5045455;28;21769;-75
2023/01/01 02:08:36;;;;;;;58.28;39.00;;;12.70;99.90;;;;;;5064697;28;20142;-75
2023/01/01 02:11:02;;;;;;;59.25;40.97;;;12.80;99.90;;;;;;5048390;28;20201;-75
2023/01/01 02:13:28;;;;;;;66.43;44.40;;;12.70;99.90;;;;;;5050452;28;20114;-75
2023/01/01 02:15:58;;;;;;;56.20;39.03;;;12.70;99.90;;;;;;5067452;28;20044;-75
2023/01/01 02:18:37;;;;;;;61.08;44.17;;;12.70;99.90;;;;;;5061603;28;20036;-75
2023/01/01 02:21:16;;;;;;;56.85;40.40;;;12.70;99.90;;;;;;5065728;28;20039;-75
2023/01/01 02:24:19;;;;;;;65.30;44.70;;;12.60;99.90;;;;;;5050791;28;20416;-75
2023/01/01 02:26:53;;;;;;;56.13;38.22;;;12.70;99.90;;;;;;4986667;28;20037;-74
2023/01/01 02:29:40;;;;;;;51.85;35.13;;;12.70;99.90;;;;;;5035150;28;20051;-75
2023/01/01 02:32:11;;;;;;;60.38;39.45;;;12.60;99.90;;;;;;5044644;28;20044;-74
2023/01/01 02:34:42;;;;;;;52.00;34.53;;;12.70;99.90;;;;;;5045773;28;20738;-74
2023/01/01 02:37:11;;;;;;;54.33;35.88;;;12.70;99.90;;;;;;5061943;28;20420;-74
2023/01/01 02:39:41;;;;;;;51.78;34.03;;;12.70;99.90;;;;;;5046492;28;20465;-74
2023/01/01 02:42:07;;;;;;;49.92;32.90;;;12.70;99.90;;;;;;5060092;28;20114;-74
2023/01/01 02:44:41;;;;;;;46.70;32.53;;;12.80;99.90;;;;;;5073224;28;21429;-74
2023/01/01 02:47:16;;;;;;;42.15;28.83;;;12.70;99.90;;;;;;5061409;28;20157;-75
2023/01/01 02:49:54;;;;;;;49.90;31.38;;;12.70;99.90;;;;;;5073391;28;20036;-75
2023/01/01 02:52:48;;;;;;;45.95;28.95;;;12.70;99.90;;;;;;5054698;28;21051;-74
2023/01/01 02:55:32;;;;;;;39.35;24.40;;;12.70;99.90;;;;;;5046457;28;20045;-74
2023/01/01 03:01:33;;;;;;;41.33;26.65;;;12.60;99.90;;;;;;5062755;28;20401;-74
2023/01/01 03:04:42;;;;;;;37.72;26.40;;;12.60;99.90;;;;;;5080455;28;20563;-74
2023/01/01 03:07:22;;;;;;;37.38;24.15;;;12.60;99.90;;;;;;5080725;28;20045;-74
2023/01/01 03:10:06;;;;;;;36.47;22.08;;;12.60;99.90;;;;;;5046900;28;20040;-74
2023/01/01 03:12:56;;;;;;;34.97;19.27;;;12.60;99.90;;;;;;5064631;28;20044;-75
2023/01/01 03:15:39;;;;;;;28.33;15.65;;;12.50;99.90;;;;;;5078254;28;20132;-75
2023/01/01 03:18:17;;;;;;;28.63;16.83;;;12.40;99.90;;;;;;5064208;28;20047;-75
2023/01/01 03:20:47;;;;;;;34.95;19.10;;;12.30;99.90;;;;;;5063910;28;20051;-74
2023/01/01 03:23:18;;;;;;;33.13;19.77;;;12.20;99.90;;;;;;5066677;28;20139;-75
2023/01/01 03:25:50;;;;;;;32.08;17.55;;;12.10;99.90;;;;;;5047088;28;20033;-75
2023/01/01 03:28:32;;;;;;;35.70;21.42;;;12.00;99.90;;;;;;5061423;28;20174;-75
2023/01/01 03:30:59;;;;;;;35.05;18.52;;;11.90;99.90;;;;;;5064579;28;20115;-75
2023/01/01 03:33:37;;;;;;;36.28;20.38;;;11.90;99.90;;;;;;5063227;28;20056;-75
2023/01/01 03:36:11;;;;;;;32.47;18.33;;;11.80;99.90;;;;;;5048807;28;20500;-78
2023/01/01 03:39:05;;;;;;;33.60;18.70;;;11.80;99.90;;;;;;5048281;28;20446;-75
2023/01/01 03:41:38;;;;;;;34.50;16.27;;;11.70;99.90;;;;;;5079464;28;20140;-75
2023/01/01 03:44:21;;;;;;;35.22;14.70;;;11.70;99.90;;;;;;5058055;28;20048;-78
2023/01/01 03:46:47;;;;;;;31.33;16.88;;;11.50;99.90;;;;;;5060542;28;20063;-78
2023/01/01 03:49:14;;;;;;;29.45;15.77;;;11.40;99.90;;;;;;5060096;28;20086;-78
2023/01/01 03:52:02;;;;;;;29.33;14.73;;;11.40;99.90;;;;;;5043054;28;20072;-75
2023/01/01 03:54:55;;;;;;;26.27;13.75;;;11.40;99.90;;;;;;5060968;28;20040;-75
2023/01/01 03:57:34;;;;;;;25.45;12.82;;;11.30;99.90;;;;;;5072478;28;20032;-75
2023/01/01 04:00:08;;;;;;;25.80;11.18;;;11.30;99.90;;;;;;5045232;28;20053;-75
2023/01/01 04:02:41;;;;;;;20.38;9.27;;;11.30;99.90;;;;;;5060103;28;20051;-75
2023/01/01 04:05:11;;;;;;;19.38;9.43;;;11.30;99.90;;;;;;5043842;28;20044;-75
2023/01/01 04:07:37;;;;;;;18.05;8.25;;;11.40;99.90;;;;;;5059120;28;20048;-75
2023/01/01 04:10:15;;;;;;;18.25;7.55;;;11.40;99.90;;;;;;5061767;28;20064;-75
2023/01/01 04:12:49;;;;;;;18.77;7.85;;;11.40;99.90;;;;;;5046315;28;20044;-75
2023/01/01 04:15:20;;;;;;;18.52;7.55;;;11.50;99.90;;;;;;5047787;28;20656;-75
2023/01/01 04:17:46;;;;;;;18.02;7.07;;;11.60;99.90;;;;;;5048302;28;20070;-77
2023/01/01 04:20:12;;;;;;;20.63;7.18;;;11.60;99.90;;;;;;5061770;28;20064;-75
2023/01/01 04:22:39;;;;;;;21.00;7.18;;;11.60;99.90;;;;;;5062082;28;20564;-75
2023/01/01 04:25:05;;;;;;;22.65;7.13;;;11.60;99.90;;;;;;5062053;28;20396;-75
2023/01/01 04:27:31;;;;;;;21.50;6.32;;;11.60;99.90;;;;;;5064747;28;20089;-74
2023/01/01 04:29:57;;;;;;;19.63;6.70;;;11.60;99.90;;;;;;5062307;28;20086;-75
2023/01/01 04:32:22;;;;;;;18.45;6.32;;;11.70;99.90;;;;;;5048054;28;20040;-75
2023/01/01 04:34:48;;;;;;;22.52;6.40;;;11.60;99.90;;;;;;5046036;28;20424;-75
2023/01/01 04:37:14;;;;;;;19.77;6.35;;;11.60;99.90;;;;;;5065647;28;20051;-75
2023/01/01 04:39:40;;;;;;;21.35;5.95;;;11.60;99.90;;;;;;5060860;28;20040;-75
2023/01/01 04:42:05;;;;;;;25.30;6.07;;;11.60;99.90;;;;;;5061340;28;20052;-75
2023/01/01 04:44:31;;;;;;;22.33;6.75;;;11.60;99.90;;;;;;5047416;28;20086;-75
2023/01/01 04:46:57;;;;;;;17.50;5.75;;;11.60;99.90;;;;;;5046964;28;20043;-75
2023/01/01 04:49:22;;;;;;;22.75;6.97;;;11.50;99.90;;;;;;5061227;28;20040;-74
2023/01/01 04:51:48;;;;;;;28.77;7.80;;;11.50;99.90;;;;;;5047799;28;20104;-75
2023/01/01 04:54:13;;;;;;;23.67;7.53;;;11.50;99.90;;;;;;5056247;28;20040;-75
2023/01/01 04:56:39;;;;;;;22.17;8.27;;;11.50;99.90;;;;;;5065631;28;20040;-75
2023/01/01 04:59:05;;;;;;;20.02;7.03;;;11.50;99.90;;;;;;5068455;28;20101;-75
2023/01/01 05:01:31;;;;;;;17.20;6.82;;;11.50;99.90;;;;;;5054320;28;20040;-75
2023/01/01 05:03:58;;;;;;;14.32;5.65;;;11.60;99.90;;;;;;5068467;28;20046;-75
2023/01/01 05:06:24;;;;;;;17.85;5.78;;;11.60;99.90;;;;;;5068514;28;20072;-75
2023/01/01 05:08:53;;;;;;;17.30;5.25;;;11.60;99.90;;;;;;5068606;28;20045;-75
2023/01/01 05:11:29;;;;;;;15.63;4.72;;;11.70;99.90;;;;;;5069263;28;20047;-76
2023/01/01 05:13:57;;;;;;;16.17;4.88;;;11.70;99.90;;;;;;5067831;28;20082;-76
2023/01/01 05:16:25;;;;;;;18.23;4.93;;;11.70;99.90;;;;;;5053939;28;20040;-75
2023/01/01 05:18:51;;;;;;;17.13;4.75;;;11.70;99.90;;;;;;5068858;28;20036;-76
2023/01/01 05:21:23;;;;;;;17.52;4.30;;;11.70;99.90;;;;;;5049885;28;20059;-76
2023/01/01 05:23:57;;;;;;;11.60;4.63;;;11.80;99.90;;;;;;5054854;28;20388;-75
2023/01/01 05:26:26;;;;;;;12.85;4.38;;;11.80;99.90;;;;;;5067439;28;20036;-75
2023/01/01 05:28:53;;;;;;;17.08;5.00;;;11.80;99.90;;;;;;5065336;28;20052;-76
2023/01/01 05:31:21;;;;;;;11.07;4.22;;;11.80;99.90;;;;;;5054198;28;20047;-75
2023/01/01 05:33:47;;;;;;;10.05;3.50;;;11.80;99.90;;;;;;5051874;28;21050;-75
2023/01/01 05:36:18;;;;;;;10.35;4.20;;;11.80;99.90;;;;;;5071635;28;20047;-75
2023/01/01 05:38:45;;;;;;;12.85;3.58;;;11.80;99.90;;;;;;5052063;28;20049;-75
2023/01/01 05:41:13;;;;;;;16.23;4.32;;;11.90;99.90;;;;;;5052630;28;20060;-75
2023/01/01 05:43:39;;;;;;;9.70;3.50;;;11.90;99.90;;;;;;5070535;28;20496;-75
2023/01/01 05:46:08;;;;;;;11.18;3.80;;;11.90;99.90;;;;;;5069904;28;20123;-75
2023/01/01 05:48:35;;;;;;;13.45;3.80;;;11.90;99.90;;;;;;5051833;28;20431;-75
2023/01/01 05:51:09;;;;;;;13.30;3.75;;;11.90;99.90;;;;;;5084923;28;20043;-75
2023/01/01 05:53:35;;;;;;;11.55;3.17;;;11.90;99.90;;;;;;5050952;28;20041;-76
2023/01/01 05:56:01;;;;;;;11.15;3.08;;;11.90;99.90;;;;;;5065775;28;20094;-75
2023/01/01 05:58:28;;;;;;;14.88;3.25;;;11.90;99.90;;;;;;5045258;28;20357;-75
2023/01/01 06:00:54;;;;;;;14.13;3.60;;;11.90;99.90;;;;;;5059032;28;21241;-75
2023/01/01 06:03:19;;;;;;;10.77;2.95;;;11.90;99.90;;;;;;5063106;28;20131;-75
2023/01/01 06:05:46;;;;;;;6.78;2.92;;;11.80;99.90;;;;;;5068868;28;20472;-75
2023/01/01 06:08:11;;;;;;;6.50;2.65;;;11.80;99.90;;;;;;5060670;28;20125;-75
2023/01/01 06:10:37;;;;;;;7.28;2.65;;;11.80;99.90;;;;;;5067138;28;20044;-75
2023/01/01 06:13:03;;;;;;;7.32;2.40;;;11.80;99.90;;;;;;5064800;28;20040;-75
2023/01/01 06:15:29;;;;;;;7.57;2.10;;;11.80;99.90;;;;;;5065041;28;20471;-75
2023/01/01 06:17:56;;;;;;;9.27;2.83;;;11.80;99.90;;;;;;5050606;28;20025;-75
2023/01/01 06:20:21;;;;;;;8.63;2.58;;;11.80;99.90;;;;;;5065276;28;20040;-75
2023/01/01 06:22:47;;;;;;;9.82;2.75;;;11.70;99.90;;;;;;5048230;28;20557;-76
2023/01/01 06:25:12;;;;;;;8.68;2.63;;;11.70;99.90;;;;;;5048764;28;20122;-75
2023/01/01 06:27:38;;;;;;;8.57;2.40;;;11.70;99.90;;;;;;5064711;28;20488;-76
2023/01/01 06:30:06;;;;;;;8.15;2.38;;;11.70;99.90;;;;;;5048556;28;20052;-75
2023/01/01 06:32:31;;;;;;;10.93;2.33;;;11.70;99.90;;;;;;5063365;28;20446;-75
2023/01/01 06:34:57;;;;;;;9.70;2.40;;;11.60;99.90;;;;;;5048536;28;20028;-76
2023/01/01 06:37:23;;;;;;;11.85;2.30;;;11.60;99.90;;;;;;5045328;28;20036;-76
2023/01/01 06:39:48;;;;;;;13.45;2.65;;;11.60;99.90;;;;;;5048914;28;20044;-75
2023/01/01 06:42:14;;;;;;;8.20;2.35;;;11.60;99.90;;;;;;5048671;28;20045;-75
2023/01/01 06:44:40;;;;;;;10.43;2.63;;;11.60;99.90;;;;;;5066140;28;20071;-75
2023/01/01 06:47:05;;;;;;;11.88;2.42;;;11.60;99.90;;;;;;5065133;28;20047;-76
2023/01/01 06:49:31;;;;;;;9.30;2.33;;;11.60;99.90;;;;;;5049939;28;20044;-75
2023/01/01 06:51:57;;;;;;;11.43;3.00;;;11.60;99.90;;;;;;5063774;28;20059;-75
2023/01/01 06:54:22;;;;;;;16.13;2.90;;;11.50;99.90;;;;;;5062853;28;20036;-76
2023/01/01 06:56:48;;;;;;;10.10;2.65;;;11.50;99.90;;;;;;5048733;28;20072;-75
2023/01/01 06:59:18;;;;;;;14.38;2.50;;;11.40;99.90;;;;;;5061868;28;20886;-75
2023/01/01 07:01:43;;;;;;;11.00;2.97;;;11.50;99.90;;;;;;5062270;28;20111;-76
2023/01/01 07:04:15;;;;;;;10.57;2.28;;;11.50;99.90;;;;;;5064357;28;20040;-75
2023/01/01 07:06:41;;;;;;;15.52;3.38;;;11.50;99.90;;;;;;5062701;28;20041;-75
2023/01/01 07:09:07;;;;;;;13.70;2.70;;;11.40;99.90;;;;;;5057882;28;20122;-75
2023/01/01 07:11:33;;;;;;;10.45;2.58;;;11.40;99.90;;;;;;5061356;28;20170;-75
2023/01/01 07:13:59;;;;;;;14.32;2.70;;;11.40;99.90;;;;;;5062132;28;20190;-75
2023/01/01 07:16:25;;;;;;;13.27;3.03;;;11.40;99.90;;;;;;5043966;28;20090;-75
2023/01/01 07:18:51;;;;;;;16.58;3.05;;;11.40;99.90;;;;;;5078535;28;20189;-75
2023/01/01 07:21:23;;;;;;;11.93;2.88;;;11.40;99.90;;;;;;5072805;28;20529;-76
2023/01/01 07:23:49;;;;;;;13.13;3.10;;;11.30;99.90;;;;;;5072670;28;20119;-76
2023/01/01 07:26:14;;;;;;;19.08;3.95;;;11.30;99.90;;;;;;5059827;28;20111;-75
2023/01/01 07:28:40;;;;;;;15.23;3.22;;;11.40;99.90;;;;;;5060783;28;20090;-76
2023/01/01 07:31:05;;;;;;;13.32;3.50;;;11.40;99.90;;;;;;5045900;28;20088;-75
2023/01/01 07:33:31;;;;;;;18.75;3.60;;;11.40;99.90;;;;;;5058269;28;20041;-75
2023/01/01 07:35:56;;;;;;;14.02;3.38;;;11.40;99.90;;;;;;5065449;28;20119;-76
2023/01/01 07:38:22;;;;;;;17.80;2.90;;;11.30;99.90;;;;;;5062968;28;20493;-75
2023/01/01 07:40:47;;;;;;;17.85;3.42;;;11.20;99.90;;;;;;5063606;28;20131;-75
2023/01/01 07:43:13;;;;;;;16.60;4.10;;;11.20;99.90;;;;;;5051192;28;20040;-75
2023/01/01 07:45:39;;;;;;;16.30;3.05;;;11.20;99.90;;;;;;5062622;28;20043;-75
2023/01/01 07:48:06;;;;;;;22.88;3.33;;;11.20;99.90;;;;;;5047338;28;20477;-75
2023/01/01 07:50:32;;;;;;;17.48;3.80;;;11.20;99.90;;;;;;5061335;28;20119;-75
2023/01/01 07:52:57;;;;;;;16.60;3.72;;;11.20;99.90;;;;;;5062796;28;20127;-76
2023/01/01 07:55:23;;;;;;;17.88;4.18;;;11.20;99.90;;;;;;5062929;28;20506;-75
2023/01/01 07:57:49;;;;;;;17.20;3.65;;;11.30;99.90;;;;;;5062906;28;20039;-75
2023/01/01 08:00:17;;;;;;;21.92;4.15;;;11.20;99.90;;;;;;5046633;28;20047;-75
2023/01/01 08:02:43;;;;;;;15.00;3.60;;;11.20;99.90;;;;;;5048373;28;20040;-75
2023/01/01 08:05:09;;;;;;;15.10;3.08;;;11.20;99.90;;;;;;5064051;28;20044;-75
2023/01/01 08:07:35;;;;;;;20.50;3.38;;;11.10;99.90;;;;;;5046185;28;20392;-75
2023/01/01 08:10:02;;;;;;;17.50;3.50;;;11.20;99.90;;;;;;5065101;28;20039;-75
2023/01/01 08:12:28;;;;;;;18.40;3.35;;;11.20;99.90;;;;;;5064530;28;21119;-75
2023/01/01 08:14:53;;;;;;;16.50;3.30;;;11.20;99.90;;;;;;5046937;28;20032;-75
2023/01/01 08:17:19;;;;;;;16.60;3.67;;;11.20;99.90;;;;;;5061332;28;20044;-76
2023/01/01 08:19:46;;;;;;;18.15;3.60;;;11.20;99.90;;;;;;5061212;28;21307;-75
2023/01/01 08:22:11;;;;;;;14.40;3.28;;;11.20;99.90;;;;;;5063235;28;20072;-75
2023/01/01 08:24:37;;;;;;;19.67;4.15;;;11.20;99.90;;;;;;5060467;28;20118;-75
2023/01/01 08:27:02;;;;;;;20.92;4.03;;;11.20;99.90;;;;;;5065470;28;20123;-75
2023/01/01 08:29:28;;;;;;;18.63;3.78;;;11.20;99.90;;;;;;5063107;28;20438;-75
2023/01/01 08:31:54;;;;;;;16.92;3.83;;;11.20;99.90;;;;;;5045309;28;20036;-75
2023/01/01 08:34:19;;;;;;;20.23;3.90;;;11.20;99.90;;;;;;5064219;28;20052;-75
2023/01/01 08:36:45;;;;;;;20.33;5.07;;;11.20;99.90;;;;;;5046595;28;20075;-75
2023/01/01 08:39:10;;;;;;;20.83;3.95;;;11.20;99.90;;;;;;5075237;28;20032;-75
2023/01/01 08:41:36;;;;;;;17.13;3.90;;;11.20;99.90;;;;;;5044983;28;20459;-75
2023/01/01 08:44:02;;;;;;;23.50;4.78;;;11.20;99.90;;;;;;5042612;28;20041;-75
2023/01/01 08:46:27;;;;;;;21.13;4.18;;;11.20;99.90;;;;;;5047358;28;20044;-75
2023/01/01 08:48:53;;;;;;;21.67;4.20;;;11.20;99.90;;;;;;5061366;28;20036;-75
2023/01/01 08:51:18;;;;;;;16.55;3.80;;;11.20;99.90;;;;;;5061192;28;20277;-75
2023/01/01 08:53:44;;;;;;;22.85;3.80;;;11.30;99.90;;;;;;5062847;28;20183;-75
2023/01/01 08:56:11;;;;;;;21.67;4.38;;;11.30;99.90;;;;;;5045875;28;20037;-75
2023/01/01 08:58:39;;;;;;;22.52;3.95;;;11.30;99.90;;;;;;5044720;28;20069;-74
2023/01/01 09:01:05;;;;;;;21.13;4.63;;;11.30;99.90;;;;;;5047794;28;20131;-75
2023/01/01 09:03:32;;;;;;;19.58;4.45;;;11.30;99.90;;;;;;5044485;28;20047;-75
2023/01/01 09:05:58;;;;;;;20.98;3.42;;;11.20;99.90;;;;;;5062091;28;20045;-76
2023/01/01 09:08:24;;;;;;;23.88;4.63;;;11.20;99.90;;;;;;5062233;28;20048;-74
2023/01/01 09:10:50;;;;;;;22.58;4.20;;;11.20;99.90;;;;;;5061308;28;20101;-75
2023/01/01 09:13:18;;;;;;;20.20;4.20;;;11.30;99.90;;;;;;5058909;28;20098;-75
2023/01/01 09:15:44;;;;;;;22.45;3.90;;;11.30;99.90;;;;;;5062136;28;20072;-75
2023/01/01 09:18:11;;;;;;;19.33;4.25;;;11.30;99.90;;;;;;5061521;28;20079;-75
2023/01/01 09:20:37;;;;;;;21.73;4.60;;;11.30;99.90;;;;;;5062471;28;20040;-75
2023/01/01 09:23:03;;;;;;;24.25;3.88;;;11.30;99.90;;;;;;5060448;28;20036;-75
2023/01/01 09:25:29;;;;;;;16.23;3.75;;;11.30;99.90;;;;;;5057006;28;20041;-75
2023/01/01 09:28:00;;;;;;;19.45;4.25;;;11.30;99.90;;;;;;5060652;28;20485;-75
2023/01/01 09:30:26;;;;;;;18.23;4.15;;;11.30;99.90;;;;;;5059419;28;20044;-75
2023/01/01 09:32:52;;;;;;;16.38;3.50;;;11.40;99.90;;;;;;5058234;28;20365;-75
2023/01/01 09:35:18;;;;;;;20.10;3.63;;;11.40;99.90;;;;;;5057169;28;20099;-75
2023/01/01 09:37:44;;;;;;;20.13;3.88;;;11.40;99.90;;;;;;5038114;28;20048;-75
2023/01/01 09:40:43;;;;;;;16.55;3.95;;;11.40;99.90;;;;;;5039363;28;20059;-75
2023/01/01 09:43:24;;;;;;;24.77;4.63;;;11.40;99.90;;;;;;5065064;28;20457;-75
2023/01/01 09:46:01;;;;;;;19.77;4.28;;;11.40;99.90;;;;;;5048604;28;20051;-75
2023/01/01 09:48:29;;;;;;;13.07;3.40;;;11.40;99.90;;;;;;5049325;28;20082;-75
2023/01/01 09:50:56;;;;;;;24.33;4.18;;;11.40;99.90;;;;;;5083378;28;20048;-75
2023/01/01 09:53:50;;;;;;;22.35;4.20;;;11.40;99.90;;;;;;5063225;28;20036;-75
2023/01/01 09:56:26;;;;;;;20.20;3.92;;;11.40;99.90;;;;;;5062314;28;20400;-75
2023/01/01 09:58:52;;;;;;;17.85;3.53;;;11.50;99.90;;;;;;5072422;28;20072;-75
2023/01/01 10:01:29;;;;;;;20.10;4.18;;;11.50;99.90;;;;;;5074878;28;20040;-75
2023/01/01 10:04:00;;;;;;;21.85;4.65;;;11.60;99.90;;;;;;5060876;28;20590;-75
2023/01/01 10:06:32;;;;;;;23.45;4.10;;;11.60;99.90;;;;;;5045210;28;20070;-75
2023/01/01 10:09:06;;;;;;;21.95;3.92;;;11.70;99.90;;;;;;5061188;28;20324;-75
2023/01/01 10:11:43;;;;;;;18.08;3.47;;;11.70;99.90;;;;;;5073398;28;20036;-75
2023/01/01 10:14:24;;;;;;;18.60;3.35;;;11.70;99.90;;;;;;5060029;28;20381;-75
2023/01/01 10:16:54;;;;;;;23.30;4.78;;;11.80;99.90;;;;;;5080092;28;20040;-75
2023/01/01 10:19:31;;;;;;;18.90;4.18;;;11.90;99.90;;;;;;5063680;28;20032;-75
2023/01/01 10:22:03;;;;;;;18.95;4.40;;;11.90;99.90;;;;;;5045634;28;20059;-75
2023/01/01 10:24:50;;;;;;;19.92;4.65;;;12.00;99.90;;;;;;5060870;28;20053;-75
2023/01/01 10:27:29;;;;;;;23.77;3.70;;;12.10;99.90;;;;;;5044095;28;20047;-74
2023/01/01 10:29:55;;;;;;;16.80;3.38;;;12.20;99.90;;;;;;5059681;28;20048;-75
2023/01/01 10:32:27;;;;;;;16.45;3.53;;;12.20;99.90;;;;;;5063574;28;20106;-75
2023/01/01 10:34:53;;;;;;;22.05;4.75;;;12.20;99.90;;;;;;5045365;28;20041;-74
2023/01/01 10:37:20;;;;;;;16.27;2.92;;;12.10;99.90;;;;;;5046415;28;20076;-75
2023/01/01 10:39:46;;;;;;;26.60;3.72;;;12.00;99.90;;;;;;5058111;28;20087;-74
2023/01/01 10:42:14;;;;;;;22.52;3.78;;;12.00;99.90;;;;;;5057306;28;20044;-75
2023/01/01 10:44:42;;;;;;;17.83;3.47;;;12.00;99.90;;;;;;5060305;28;20491;-75
2023/01/01 10:47:24;;;;;;;17.60;3.85;;;11.90;99.90;;;;;;5057186;28;20048;-75
2023/01/01 10:50:06;;;;;;;15.63;3.10;;;11.90;99.90;;;;;;5062686;28;20106;-75
2023/01/01 10:52:42;;;;;;;14.80;3.30;;;11.90;99.90;;;;;;5047204;28;20044;-74
2023/01/01 10:55:20;;;;;;;15.52;3.55;;;11.90;99.90;;;;;;5066383;28;20093;-75
2023/01/01 10:57:46;;;;;;;16.52;3.70;;;12.00;99.90;;;;;;5064576;28;20388;-75
2023/01/01 11:00:22;;;;;;;15.10;2.90;;;12.10;99.90;;;;;;5048934;28;20119;-75
2023/01/01 11:03:11;;;;;;;16.05;3.45;;;12.10;99.90;;;;;;5060773;28;20098;-75
2023/01/01 11:05:37;;;;;;;16.17;3.50;;;12.00;99.90;;;;;;5080798;28;20472;-75
2023/01/01 11:08:03;;;;;;;16.60;3.45;;;12.00;99.90;;;;;;5063264;28;20086;-75
2023/01/01 11:10:30;;;;;;;21.83;3.40;;;12.00;99.90;;;;;;5065594;28;20148;-75
2023/01/01 11:12:55;;;;;;;19.50;3.47;;;12.00;99.90;;;;;;5049577;28;20055;-74
2023/01/01 11:15:41;;;;;;;17.05;2.70;;;12.00;99.90;;;;;;5065399;28;20044;-75
2023/01/01 11:18:34;;;;;;;19.35;3.40;;;11.90;99.90;;;;;;5064722;28;20045;-75
2023/01/01 11:21:03;;;;;;;15.43;3.40;;;12.00;99.90;;;;;;5065312;28;20036;-75
2023/01/01 11:23:29;;;;;;;15.60;3.20;;;12.00;99.90;;;;;;5063546;28;20083;-74
2023/01/01 11:26:00;;;;;;;18.85;4.00;;;12.00;99.90;;;;;;5063796;28;20067;-75
2023/01/01 11:28:27;;;;;;;13.68;2.90;;;12.00;99.90;;;;;;5080488;28;20040;-75
2023/01/01 11:31:14;;;;;;;14.95;3.25;;;12.00;99.90;;;;;;5049837;28;20044;-75
2023/01/01 11:33:51;;;;;;;14.15;3.45;;;12.00;99.90;;;;;;5062050;28;20461;-75
2023/01/01 11:36:26;;;;;;;13.82;3.20;;;11.90;99.90;;;;;;5065602;28;20060;-75
2023/01/01 11:39:16;;;;;;;19.38;3.10;;;11.90;99.90;;;;;;5063779;28;20047;-75
2023/01/01 11:41:45;;;;;;;14.48;3.50;;;11.90;99.90;;;;;;5062645;28;20119;-74
2023/01/01 11:44:21;;;;;;;13.00;3.00;;;11.90;99.90;;;;;;5063340;28;20488;-74
2023/01/01 11:46:47;;;;;;;15.85;2.92;;;11.80;99.90;;;;;;5048172;28;20044;-75
2023/01/01 11:49:24;;;;;;;14.63;3.58;;;11.80;99.90;;;;;;5066643;28;20091;-75
2023/01/01 11:51:50;;;;;;;15.27;3.47;;;11.90;99.90;;;;;;5062592;28;20125;-75
2023/01/01 11:54:27;;;;;;;13.43;3.10;;;11.90;99.90;;;;;;5064804;28;20433;-75
2023/01/01 11:57:00;;;;;;;13.82;3.10;;;11.90;99.90;;;;;;5062401;28;20071;-75
2023/01/01 11:59:35;;;;;;;13.35;2.92;;;12.00;99.90;;;;;;5061850;28;20619;-75
2023/01/01 12:02:03;;;;;;;13.35;3.25;;;12.00;99.90;;;;;;5047324;28;20048;-75
2023/01/01 12:04:54;;;;;;;14.68;3.03;;;12.10;99.90;;;;;;5064496;28;20392;-75
2023/01/01 12:07:32;;;;;;;14.75;3.05;;;12.20;99.90;;;;;;5047781;28;20089;-75
2023/01/01 12:10:03;;;;;;;14.48;3.10;;;12.30;99.90;;;;;;5060862;28;20454;-75
2023/01/01 12:12:37;;;;;;;16.65;3.60;;;12.30;99.90;;;;;;5066367;28;20048;-75
2023/01/01 12:15:27;;;;;;;15.55;2.97;;;12.40;99.90;;;;;;5066147;28;20047;-75
2023/01/01 12:18:22;;;;;;;15.07;3.53;;;12.50;99.90;;;;;;5081507;28;20037;-75
2023/01/01 12:20:51;;;;;;;;;;;12.40;99.90;;;;;;5062812;28;20052;-74
2023/01/01 12:23:18;;;;;;;16.23;3.08;;;12.40;99.90;;;;;;5043917;28;20059;-75
2023/01/01 12:25:51;;;;;;;15.05;2.70;;;12.40;99.90;;;;;;5064941;28;20064;-75
2023/01/01 12:28:40;;;;;;;17.48;3.10;;;12.30;99.90;;;;;;5061651;28;20040;-75
2023/01/01 12:31:37;;;;;;;15.55;3.13;;;12.40;99.90;;;;;;5043255;28;20060;-75
2023/01/01 12:34:16;;;;;;;14.98;2.90;;;12.40;99.90;;;;;;5062104;28;20047;-75
2023/01/01 12:37:08;;;;;;;22.05;3.63;;;12.40;99.90;;;;;;5065040;28;20048;-75
2023/01/01 12:39:53;;;;;;;13.45;3.20;;;12.50;99.90;;;;;;5048754;28;20041;-75
2023/01/01 12:42:44;;;;;;;16.23;3.15;;;12.60;99.90;;;;;;5047147;28;20052;-75
2023/01/01 12:45:09;;;;;;;16.17;4.13;;;12.50;99.90;;;;;;5047194;28;20048;-75
2023/01/01 12:48:13;;;;;;;14.95;3.25;;;12.50;99.90;;;;;;5048193;28;20051;-75
2023/01/01 12:51:01;;;;;;;13.18;2.50;;;12.50;99.90;;;;;;5040136;28;20045;-75
2023/01/01 12:53:48;;;;;;;19.05;3.58;;;12.40;99.90;;;;;;5045930;28;20495;-75
2023/01/01 12:56:15;;;;;;;14.93;3.38;;;12.50;99.90;;;;;;5047530;28;20047;-75